sensor_id;sensor_type;location;lat;lon;timestamp;P1;durP1;ratioP1;P2;durP2;ratioP2
14121;SDS011;7139;48.114;11.442;2024-03-17T00:01:08;3.33;;;3.03;;
14121;SDS011;7139;48.114;11.442;2024-03-17T00:03:35;3.00;;;2.80;;
14121;SDS011;7139;48.114;11.442;2024-03-17T00:06:02;3.40;;;2.77;;
14121;SDS011;7139;48.114;11.442;2024-03-17T00:08:29;3.17;;;2.90;;
14121;SDS011;7139;48.114;11.442;2024-03-17T00:10:55;3.40;;;2.70;;
14121;SDS011;7139;48.114;11.442;2024-03-17T00:13:22;3.33;;;2.80;;
14121;SDS011;7139;48.114;11.442;2024-03-17T00:15:48;3.10;;;2.80;;
14121;SDS011;7139;48.114;11.442;2024-03-17T00:18:15;3.33;;;2.90;;
14121;SDS011;7139;48.114;11.442;2024-03-17T00:20:42;2.77;;;2.40;;
14121;SDS011;7139;48.114;11.442;2024-03-17T00:23:10;3.10;;;2.80;;
14121;SDS011;7139;48.114;11.442;2024-03-17T00:25:37;2.83;;;2.60;;
14121;SDS011;7139;48.114;11.442;2024-03-17T00:28:04;3.30;;;3.00;;
14121;SDS011;7139;48.114;11.442;2024-03-17T00:30:30;2.90;;;2.60;;
14121;SDS011;7139;48.114;11.442;2024-03-17T00:32:57;2.80;;;2.53;;
14121;SDS011;7139;48.114;11.442;2024-03-17T00:35:23;2.90;;;2.70;;
14121;SDS011;7139;48.114;11.442;2024-03-17T00:37:51;3.73;;;2.77;;
14121;SDS011;7139;48.114;11.442;2024-03-17T00:40:19;2.80;;;2.60;;
14121;SDS011;7139;48.114;11.442;2024-03-17T00:42:47;3.63;;;3.03;;
14121;SDS011;7139;48.114;11.442;2024-03-17T00:45:12;3.07;;;2.77;;
14121;SDS011;7139;48.114;11.442;2024-03-17T00:47:39;3.03;;;2.83;;
14121;SDS011;7139;48.114;11.442;2024-03-17T00:50:06;3.30;;;3.00;;
14121;SDS011;7139;48.114;11.442;2024-03-17T00:52:33;3.60;;;3.30;;
14121;SDS011;7139;48.114;11.442;2024-03-17T00:54:59;3.40;;;3.10;;
14121;SDS011;7139;48.114;11.442;2024-03-17T00:57:28;3.70;;;3.30;;
14121;SDS011;7139;48.114;11.442;2024-03-17T00:59:54;3.47;;;3.17;;
14121;SDS011;7139;48.114;11.442;2024-03-17T01:02:21;3.30;;;3.00;;
14121;SDS011;7139;48.114;11.442;2024-03-17T01:04:47;3.47;;;3.17;;
14121;SDS011;7139;48.114;11.442;2024-03-17T01:07:14;2.70;;;2.50;;
14121;SDS011;7139;48.114;11.442;2024-03-17T01:09:40;3.33;;;3.03;;
14121;SDS011;7139;48.114;11.442;2024-03-17T01:12:06;5.83;;;3.10;;
14121;SDS011;7139;48.114;11.442;2024-03-17T01:14:34;3.30;;;3.00;;
14121;SDS011;7139;48.114;11.442;2024-03-17T01:17:00;3.47;;;2.77;;
14121;SDS011;7139;48.114;11.442;2024-03-17T01:19:29;5.60;;;2.70;;
14121;SDS011;7139;48.114;11.442;2024-03-17T01:21:57;3.23;;;2.93;;
14121;SDS011;7139;48.114;11.442;2024-03-17T01:24:23;3.67;;;2.80;;
14121;SDS011;7139;48.114;11.442;2024-03-17T01:26:50;4.00;;;2.97;;
14121;SDS011;7139;48.114;11.442;2024-03-17T01:29:18;3.47;;;3.17;;
14121;SDS011;7139;48.114;11.442;2024-03-17T01:31:46;3.07;;;2.87;;
14121;SDS011;7139;48.114;11.442;2024-03-17T01:34:12;3.20;;;2.90;;
14121;SDS011;7139;48.114;11.442;2024-03-17T01:36:38;3.17;;;2.97;;
14121;SDS011;7139;48.114;11.442;2024-03-17T01:39:04;3.43;;;3.13;;
14121;SDS011;7139;48.114;11.442;2024-03-17T01:41:32;3.87;;;2.90;;
14121;SDS011;7139;48.114;11.442;2024-03-17T01:43:58;3.53;;;3.23;;
14121;SDS011;7139;48.114;11.442;2024-03-17T01:46:25;3.17;;;2.70;;
14121;SDS011;7139;48.114;11.442;2024-03-17T01:48:52;3.60;;;3.07;;
14121;SDS011;7139;48.114;11.442;2024-03-17T01:51:19;3.10;;;2.80;;
14121;SDS011;7139;48.114;11.442;2024-03-17T01:53:45;3.10;;;2.90;;
14121;SDS011;7139;48.114;11.442;2024-03-17T01:56:12;3.23;;;2.93;;
14121;SDS011;7139;48.114;11.442;2024-03-17T01:58:41;3.37;;;3.07;;
14121;SDS011;7139;48.114;11.442;2024-03-17T02:01:10;4.20;;;3.17;;
14121;SDS011;7139;48.114;11.442;2024-03-17T02:03:39;3.40;;;3.13;;
14121;SDS011;7139;48.114;11.442;2024-03-17T02:06:07;3.43;;;3.13;;
14121;SDS011;7139;48.114;11.442;2024-03-17T02:08:46;3.40;;;3.10;;
14121;SDS011;7139;48.114;11.442;2024-03-17T02:11:23;3.30;;;3.00;;
14121;SDS011;7139;48.114;11.442;2024-03-17T02:13:51;3.57;;;2.90;;
14121;SDS011;7139;48.114;11.442;2024-03-17T02:16:18;4.47;;;3.00;;
14121;SDS011;7139;48.114;11.442;2024-03-17T02:18:45;2.90;;;2.70;;
14121;SDS011;7139;48.114;11.442;2024-03-17T02:21:14;4.10;;;3.13;;
14121;SDS011;7139;48.114;11.442;2024-03-17T02:23:42;2.77;;;2.50;;
14121;SDS011;7139;48.114;11.442;2024-03-17T02:26:09;3.73;;;3.10;;
14121;SDS011;7139;48.114;11.442;2024-03-17T02:28:38;3.07;;;2.80;;
14121;SDS011;7139;48.114;11.442;2024-03-17T02:31:06;3.50;;;3.20;;
14121;SDS011;7139;48.114;11.442;2024-03-17T02:33:33;3.83;;;3.27;;
14121;SDS011;7139;48.114;11.442;2024-03-17T02:36:00;3.27;;;3.00;;
14121;SDS011;7139;48.114;11.442;2024-03-17T02:38:26;3.30;;;3.00;;
14121;SDS011;7139;48.114;11.442;2024-03-17T02:41:12;3.53;;;3.23;;
14121;SDS011;7139;48.114;11.442;2024-03-17T02:43:38;3.90;;;3.27;;
14121;SDS011;7139;48.114;11.442;2024-03-17T02:46:05;3.40;;;3.00;;
14121;SDS011;7139;48.114;11.442;2024-03-17T02:48:34;3.23;;;2.90;;
14121;SDS011;7139;48.114;11.442;2024-03-17T02:51:03;3.30;;;3.03;;
14121;SDS011;7139;48.114;11.442;2024-03-17T02:53:30;4.43;;;3.20;;
14121;SDS011;7139;48.114;11.442;2024-03-17T02:55:56;3.27;;;2.97;;
14121;SDS011;7139;48.114;11.442;2024-03-17T02:58:25;4.00;;;3.30;;
14121;SDS011;7139;48.114;11.442;2024-03-17T03:00:51;3.47;;;3.17;;
14121;SDS011;7139;48.114;11.442;2024-03-17T03:03:18;3.00;;;2.80;;
14121;SDS011;7139;48.114;11.442;2024-03-17T03:05:45;4.23;;;3.40;;
14121;SDS011;7139;48.114;11.442;2024-03-17T03:08:14;4.10;;;3.47;;
14121;SDS011;7139;48.114;11.442;2024-03-17T03:10:43;3.00;;;2.80;;
14121;SDS011;7139;48.114;11.442;2024-03-17T03:13:10;3.63;;;3.17;;
14121;SDS011;7139;48.114;11.442;2024-03-17T03:15:38;3.40;;;3.10;;
14121;SDS011;7139;48.114;11.442;2024-03-17T03:18:05;3.57;;;3.27;;
14121;SDS011;7139;48.114;11.442;2024-03-17T03:20:32;3.60;;;3.30;;
14121;SDS011;7139;48.114;11.442;2024-03-17T03:22:59;3.10;;;2.90;;
14121;SDS011;7139;48.114;11.442;2024-03-17T03:25:26;3.40;;;3.00;;
14121;SDS011;7139;48.114;11.442;2024-03-17T03:27:53;5.20;;;3.07;;
14121;SDS011;7139;48.114;11.442;2024-03-17T03:30:22;3.50;;;3.07;;
14121;SDS011;7139;48.114;11.442;2024-03-17T03:32:50;3.50;;;3.20;;
14121;SDS011;7139;48.114;11.442;2024-03-17T03:35:17;3.53;;;2.93;;
14121;SDS011;7139;48.114;11.442;2024-03-17T03:37:44;4.00;;;3.30;;
14121;SDS011;7139;48.114;11.442;2024-03-17T03:40:11;3.50;;;3.20;;
14121;SDS011;7139;48.114;11.442;2024-03-17T03:42:41;3.67;;;3.37;;
14121;SDS011;7139;48.114;11.442;2024-03-17T03:45:08;3.57;;;3.13;;
14121;SDS011;7139;48.114;11.442;2024-03-17T03:47:37;4.03;;;3.73;;
14121;SDS011;7139;48.114;11.442;2024-03-17T03:50:07;4.47;;;3.60;;
14121;SDS011;7139;48.114;11.442;2024-03-17T03:52:35;3.70;;;3.40;;
14121;SDS011;7139;48.114;11.442;2024-03-17T03:55:02;3.67;;;3.37;;
14121;SDS011;7139;48.114;11.442;2024-03-17T03:57:32;3.60;;;3.30;;
14121;SDS011;7139;48.114;11.442;2024-03-17T03:59:59;3.77;;;3.30;;
14121;SDS011;7139;48.114;11.442;2024-03-17T04:02:30;3.80;;;3.10;;
14121;SDS011;7139;48.114;11.442;2024-03-17T04:04:59;3.70;;;3.03;;
14121;SDS011;7139;48.114;11.442;2024-03-17T04:07:27;3.77;;;2.60;;
14121;SDS011;7139;48.114;11.442;2024-03-17T04:09:54;3.27;;;3.00;;
14121;SDS011;7139;48.114;11.442;2024-03-17T04:12:21;3.23;;;2.93;;
14121;SDS011;7139;48.114;11.442;2024-03-17T04:14:48;3.47;;;3.17;;
14121;SDS011;7139;48.114;11.442;2024-03-17T04:17:18;3.43;;;3.13;;
14121;SDS011;7139;48.114;11.442;2024-03-17T04:19:46;3.50;;;3.20;;
14121;SDS011;7139;48.114;11.442;2024-03-17T04:22:14;2.97;;;2.77;;
14121;SDS011;7139;48.114;11.442;2024-03-17T04:24:43;3.10;;;2.80;;
14121;SDS011;7139;48.114;11.442;2024-03-17T04:27:10;3.47;;;3.17;;
14121;SDS011;7139;48.114;11.442;2024-03-17T04:29:37;3.33;;;3.00;;
14121;SDS011;7139;48.114;11.442;2024-03-17T04:32:04;3.60;;;3.30;;
14121;SDS011;7139;48.114;11.442;2024-03-17T04:34:31;3.40;;;3.10;;
14121;SDS011;7139;48.114;11.442;2024-03-17T04:36:58;3.30;;;3.00;;
14121;SDS011;7139;48.114;11.442;2024-03-17T04:39:25;3.23;;;3.00;;
14121;SDS011;7139;48.114;11.442;2024-03-17T04:41:53;3.00;;;2.80;;
14121;SDS011;7139;48.114;11.442;2024-03-17T04:44:20;4.07;;;3.20;;
14121;SDS011;7139;48.114;11.442;2024-03-17T04:46:47;4.97;;;3.30;;
14121;SDS011;7139;48.114;11.442;2024-03-17T04:49:14;3.53;;;3.23;;
14121;SDS011;7139;48.114;11.442;2024-03-17T04:51:42;3.50;;;3.10;;
14121;SDS011;7139;48.114;11.442;2024-03-17T04:54:09;3.00;;;2.80;;
14121;SDS011;7139;48.114;11.442;2024-03-17T04:56:36;3.30;;;3.00;;
14121;SDS011;7139;48.114;11.442;2024-03-17T04:59:04;3.33;;;3.03;;
14121;SDS011;7139;48.114;11.442;2024-03-17T05:01:31;4.13;;;3.13;;
14121;SDS011;7139;48.114;11.442;2024-03-17T05:04:01;3.70;;;3.40;;
14121;SDS011;7139;48.114;11.442;2024-03-17T05:06:29;3.13;;;2.83;;
14121;SDS011;7139;48.114;11.442;2024-03-17T05:08:56;3.33;;;3.03;;
14121;SDS011;7139;48.114;11.442;2024-03-17T05:11:23;3.37;;;3.07;;
14121;SDS011;7139;48.114;11.442;2024-03-17T05:13:50;3.00;;;2.80;;
14121;SDS011;7139;48.114;11.442;2024-03-17T05:16:18;3.13;;;2.83;;
14121;SDS011;7139;48.114;11.442;2024-03-17T05:18:48;3.23;;;2.93;;
14121;SDS011;7139;48.114;11.442;2024-03-17T05:21:15;3.33;;;3.03;;
14121;SDS011;7139;48.114;11.442;2024-03-17T05:23:42;3.10;;;2.90;;
14121;SDS011;7139;48.114;11.442;2024-03-17T05:26:09;3.13;;;2.83;;
14121;SDS011;7139;48.114;11.442;2024-03-17T05:28:36;3.37;;;3.07;;
14121;SDS011;7139;48.114;11.442;2024-03-17T05:31:02;3.67;;;3.10;;
14121;SDS011;7139;48.114;11.442;2024-03-17T05:33:31;3.30;;;3.00;;
14121;SDS011;7139;48.114;11.442;2024-03-17T05:35:58;3.37;;;3.07;;
14121;SDS011;7139;48.114;11.442;2024-03-17T05:38:27;3.47;;;3.17;;
14121;SDS011;7139;48.114;11.442;2024-03-17T05:40:55;3.20;;;2.90;;
14121;SDS011;7139;48.114;11.442;2024-03-17T05:43:23;3.33;;;2.60;;
14121;SDS011;7139;48.114;11.442;2024-03-17T05:45:50;3.00;;;2.80;;
14121;SDS011;7139;48.114;11.442;2024-03-17T05:48:17;3.13;;;2.63;;
14121;SDS011;7139;48.114;11.442;2024-03-17T05:50:45;3.50;;;3.20;;
14121;SDS011;7139;48.114;11.442;2024-03-17T05:53:12;3.63;;;3.33;;
14121;SDS011;7139;48.114;11.442;2024-03-17T05:55:39;3.30;;;3.00;;
14121;SDS011;7139;48.114;11.442;2024-03-17T05:58:08;3.50;;;3.20;;
14121;SDS011;7139;48.114;11.442;2024-03-17T06:00:35;3.40;;;3.10;;
14121;SDS011;7139;48.114;11.442;2024-03-17T06:03:02;3.80;;;3.40;;
14121;SDS011;7139;48.114;11.442;2024-03-17T06:05:31;5.57;;;4.50;;
14121;SDS011;7139;48.114;11.442;2024-03-17T06:07:59;4.47;;;3.43;;
14121;SDS011;7139;48.114;11.442;2024-03-17T06:10:27;3.47;;;3.17;;
14121;SDS011;7139;48.114;11.442;2024-03-17T06:12:55;3.93;;;3.53;;
14121;SDS011;7139;48.114;11.442;2024-03-17T06:15:21;4.10;;;3.70;;
14121;SDS011;7139;48.114;11.442;2024-03-17T06:17:49;3.70;;;3.27;;
14121;SDS011;7139;48.114;11.442;2024-03-17T06:20:16;3.63;;;3.33;;
14121;SDS011;7139;48.114;11.442;2024-03-17T06:22:43;3.53;;;3.23;;
14121;SDS011;7139;48.114;11.442;2024-03-17T06:25:12;3.63;;;3.33;;
14121;SDS011;7139;48.114;11.442;2024-03-17T06:27:39;3.87;;;3.57;;
14121;SDS011;7139;48.114;11.442;2024-03-17T06:30:06;3.90;;;3.43;;
14121;SDS011;7139;48.114;11.442;2024-03-17T06:32:38;4.13;;;3.50;;
14121;SDS011;7139;48.114;11.442;2024-03-17T06:35:06;4.20;;;3.80;;
14121;SDS011;7139;48.114;11.442;2024-03-17T06:37:33;4.27;;;3.87;;
14121;SDS011;7139;48.114;11.442;2024-03-17T06:40:00;4.20;;;3.80;;
14121;SDS011;7139;48.114;11.442;2024-03-17T06:42:29;4.73;;;4.33;;
14121;SDS011;7139;48.114;11.442;2024-03-17T06:44:56;4.40;;;4.00;;
14121;SDS011;7139;48.114;11.442;2024-03-17T06:47:23;4.63;;;4.10;;
14121;SDS011;7139;48.114;11.442;2024-03-17T06:49:50;5.07;;;4.57;;
14121;SDS011;7139;48.114;11.442;2024-03-17T06:52:17;4.30;;;3.90;;
14121;SDS011;7139;48.114;11.442;2024-03-17T06:54:44;4.40;;;4.00;;
14121;SDS011;7139;48.114;11.442;2024-03-17T06:57:16;5.13;;;4.00;;
14121;SDS011;7139;48.114;11.442;2024-03-17T06:59:45;4.53;;;4.13;;
14121;SDS011;7139;48.114;11.442;2024-03-17T07:02:13;4.33;;;3.93;;
14121;SDS011;7139;48.114;11.442;2024-03-17T07:04:42;4.53;;;4.13;;
14121;SDS011;7139;48.114;11.442;2024-03-17T07:07:09;4.53;;;4.13;;
14121;SDS011;7139;48.114;11.442;2024-03-17T07:09:37;4.77;;;3.90;;
14121;SDS011;7139;48.114;11.442;2024-03-17T07:12:04;4.93;;;4.13;;
14121;SDS011;7139;48.114;11.442;2024-03-17T07:14:31;4.60;;;4.20;;
14121;SDS011;7139;48.114;11.442;2024-03-17T07:17:00;4.23;;;3.80;;
14121;SDS011;7139;48.114;11.442;2024-03-17T07:19:26;5.03;;;4.30;;
14121;SDS011;7139;48.114;11.442;2024-03-17T07:21:56;4.50;;;4.10;;
14121;SDS011;7139;48.114;11.442;2024-03-17T07:24:22;4.60;;;4.20;;
14121;SDS011;7139;48.114;11.442;2024-03-17T07:26:49;4.87;;;4.37;;
14121;SDS011;7139;48.114;11.442;2024-03-17T07:29:16;5.10;;;4.70;;
14121;SDS011;7139;48.114;11.442;2024-03-17T07:31:45;5.27;;;4.53;;
14121;SDS011;7139;48.114;11.442;2024-03-17T07:34:13;5.10;;;4.37;;
14121;SDS011;7139;48.114;11.442;2024-03-17T07:36:40;4.23;;;3.87;;
14121;SDS011;7139;48.114;11.442;2024-03-17T07:39:06;5.30;;;4.60;;
14121;SDS011;7139;48.114;11.442;2024-03-17T07:41:33;4.57;;;4.17;;
14121;SDS011;7139;48.114;11.442;2024-03-17T07:44:00;4.80;;;4.40;;
14121;SDS011;7139;48.114;11.442;2024-03-17T07:46:27;4.60;;;4.17;;
14121;SDS011;7139;48.114;11.442;2024-03-17T07:48:54;4.53;;;4.07;;
14121;SDS011;7139;48.114;11.442;2024-03-17T07:51:22;5.17;;;4.50;;
14121;SDS011;7139;48.114;11.442;2024-03-17T07:53:49;4.60;;;3.97;;
14121;SDS011;7139;48.114;11.442;2024-03-17T07:56:17;4.33;;;3.93;;
14121;SDS011;7139;48.114;11.442;2024-03-17T07:58:45;4.00;;;3.60;;
14121;SDS011;7139;48.114;11.442;2024-03-17T08:01:15;3.50;;;3.20;;
14121;SDS011;7139;48.114;11.442;2024-03-17T08:03:44;3.43;;;3.13;;
14121;SDS011;7139;48.114;11.442;2024-03-17T08:06:14;3.60;;;3.30;;
14121;SDS011;7139;48.114;11.442;2024-03-17T08:08:42;5.07;;;3.40;;
14121;SDS011;7139;48.114;11.442;2024-03-17T08:11:09;3.27;;;2.93;;
14121;SDS011;7139;48.114;11.442;2024-03-17T08:13:39;3.60;;;3.30;;
14121;SDS011;7139;48.114;11.442;2024-03-17T08:16:06;3.20;;;2.90;;
14121;SDS011;7139;48.114;11.442;2024-03-17T08:18:34;3.40;;;3.10;;
14121;SDS011;7139;48.114;11.442;2024-03-17T08:21:01;3.43;;;3.13;;
14121;SDS011;7139;48.114;11.442;2024-03-17T08:23:31;3.37;;;3.07;;
14121;SDS011;7139;48.114;11.442;2024-03-17T08:26:00;4.70;;;3.23;;
14121;SDS011;7139;48.114;11.442;2024-03-17T08:28:27;3.40;;;3.10;;
14121;SDS011;7139;48.114;11.442;2024-03-17T08:30:55;3.30;;;3.00;;
14121;SDS011;7139;48.114;11.442;2024-03-17T08:33:22;3.47;;;3.03;;
14121;SDS011;7139;48.114;11.442;2024-03-17T08:35:54;3.03;;;2.73;;
14121;SDS011;7139;48.114;11.442;2024-03-17T08:38:22;3.47;;;3.17;;
14121;SDS011;7139;48.114;11.442;2024-03-17T08:40:50;2.80;;;2.60;;
14121;SDS011;7139;48.114;11.442;2024-03-17T08:43:18;3.13;;;2.83;;
14121;SDS011;7139;48.114;11.442;2024-03-17T08:45:53;3.20;;;3.00;;
14121;SDS011;7139;48.114;11.442;2024-03-17T08:48:23;3.13;;;2.83;;
14121;SDS011;7139;48.114;11.442;2024-03-17T08:50:50;3.50;;;3.20;;
14121;SDS011;7139;48.114;11.442;2024-03-17T08:53:17;3.70;;;2.77;;
14121;SDS011;7139;48.114;11.442;2024-03-17T08:55:44;2.90;;;2.60;;
14121;SDS011;7139;48.114;11.442;2024-03-17T08:58:11;2.87;;;2.60;;
14121;SDS011;7139;48.114;11.442;2024-03-17T09:00:39;3.33;;;2.90;;
14121;SDS011;7139;48.114;11.442;2024-03-17T09:03:06;2.50;;;2.30;;
14121;SDS011;7139;48.114;11.442;2024-03-17T09:05:35;2.43;;;2.23;;
14121;SDS011;7139;48.114;11.442;2024-03-17T09:08:02;2.10;;;1.90;;
14121;SDS011;7139;48.114;11.442;2024-03-17T09:10:29;2.20;;;2.00;;
14121;SDS011;7139;48.114;11.442;2024-03-17T09:12:56;2.10;;;1.90;;
14121;SDS011;7139;48.114;11.442;2024-03-17T09:15:22;2.30;;;2.10;;
14121;SDS011;7139;48.114;11.442;2024-03-17T09:17:51;3.10;;;2.10;;
14121;SDS011;7139;48.114;11.442;2024-03-17T09:20:18;2.03;;;1.83;;
14121;SDS011;7139;48.114;11.442;2024-03-17T09:22:44;2.37;;;1.90;;
14121;SDS011;7139;48.114;11.442;2024-03-17T09:25:11;2.03;;;1.80;;
14121;SDS011;7139;48.114;11.442;2024-03-17T09:27:39;2.47;;;2.27;;
14121;SDS011;7139;48.114;11.442;2024-03-17T09:30:07;3.50;;;2.33;;
14121;SDS011;7139;48.114;11.442;2024-03-17T09:32:35;2.20;;;1.90;;
14121;SDS011;7139;48.114;11.442;2024-03-17T09:35:03;2.00;;;1.90;;
14121;SDS011;7139;48.114;11.442;2024-03-17T09:37:30;2.77;;;2.10;;
14121;SDS011;7139;48.114;11.442;2024-03-17T09:39:57;2.53;;;1.90;;
14121;SDS011;7139;48.114;11.442;2024-03-17T09:42:25;2.20;;;2.00;;
14121;SDS011;7139;48.114;11.442;2024-03-17T09:44:53;1.70;;;1.60;;
14121;SDS011;7139;48.114;11.442;2024-03-17T09:47:22;1.90;;;1.80;;
14121;SDS011;7139;48.114;11.442;2024-03-17T09:49:51;2.40;;;1.93;;
14121;SDS011;7139;48.114;11.442;2024-03-17T09:52:21;2.30;;;2.10;;
14121;SDS011;7139;48.114;11.442;2024-03-17T09:54:50;2.37;;;1.90;;
14121;SDS011;7139;48.114;11.442;2024-03-17T09:57:22;3.03;;;1.90;;
14121;SDS011;7139;48.114;11.442;2024-03-17T09:59:51;2.93;;;1.73;;
14121;SDS011;7139;48.114;11.442;2024-03-17T10:02:19;2.20;;;1.73;;
14121;SDS011;7139;48.114;11.442;2024-03-17T10:04:46;2.33;;;1.40;;
14121;SDS011;7139;48.114;11.442;2024-03-17T10:07:13;2.23;;;1.60;;
14121;SDS011;7139;48.114;11.442;2024-03-17T10:09:42;1.33;;;1.23;;
14121;SDS011;7139;48.114;11.442;2024-03-17T10:15:01;2.67;;;1.67;;
14121;SDS011;7139;48.114;11.442;2024-03-17T10:17:30;1.73;;;1.40;;
14121;SDS011;7139;48.114;11.442;2024-03-17T10:20:13;2.33;;;1.30;;
14121;SDS011;7139;48.114;11.442;2024-03-17T10:22:59;3.13;;;1.70;;
14121;SDS011;7139;48.114;11.442;2024-03-17T10:25:30;2.23;;;1.50;;
14121;SDS011;7139;48.114;11.442;2024-03-17T10:27:58;1.37;;;1.27;;
14121;SDS011;7139;48.114;11.442;2024-03-17T10:30:26;2.53;;;1.70;;
14121;SDS011;7139;48.114;11.442;2024-03-17T10:32:56;1.67;;;1.40;;
14121;SDS011;7139;48.114;11.442;2024-03-17T10:35:27;4.43;;;1.57;;
14121;SDS011;7139;48.114;11.442;2024-03-17T10:37:56;2.97;;;1.60;;
14121;SDS011;7139;48.114;11.442;2024-03-17T10:40:24;4.10;;;1.57;;
14121;SDS011;7139;48.114;11.442;2024-03-17T10:42:54;1.80;;;1.37;;
14121;SDS011;7139;48.114;11.442;2024-03-17T10:45:21;2.27;;;1.30;;
14121;SDS011;7139;48.114;11.442;2024-03-17T10:47:48;2.00;;;1.27;;
14121;SDS011;7139;48.114;11.442;2024-03-17T10:50:17;3.67;;;1.43;;
14121;SDS011;7139;48.114;11.442;2024-03-17T10:52:45;3.07;;;1.40;;
14121;SDS011;7139;48.114;11.442;2024-03-17T10:55:20;2.97;;;1.43;;
14121;SDS011;7139;48.114;11.442;2024-03-17T10:57:49;3.30;;;1.47;;
14121;SDS011;7139;48.114;11.442;2024-03-17T11:00:18;2.67;;;1.40;;
14121;SDS011;7139;48.114;11.442;2024-03-17T11:02:47;2.03;;;1.47;;
14121;SDS011;7139;48.114;11.442;2024-03-17T11:05:16;2.23;;;1.20;;
14121;SDS011;7139;48.114;11.442;2024-03-17T11:07:46;1.63;;;1.40;;
14121;SDS011;7139;48.114;11.442;2024-03-17T11:10:15;2.00;;;1.30;;
14121;SDS011;7139;48.114;11.442;2024-03-17T11:12:45;3.70;;;1.40;;
14121;SDS011;7139;48.114;11.442;2024-03-17T11:21:17;2.23;;;1.50;;
14121;SDS011;7139;48.114;11.442;2024-03-17T11:23:56;2.23;;;1.43;;
14121;SDS011;7139;48.114;11.442;2024-03-17T11:26:28;2.37;;;1.23;;
14121;SDS011;7139;48.114;11.442;2024-03-17T11:28:56;1.93;;;1.40;;
14121;SDS011;7139;48.114;11.442;2024-03-17T11:31:39;3.23;;;1.50;;
14121;SDS011;7139;48.114;11.442;2024-03-17T11:36:59;1.93;;;1.37;;
14121;SDS011;7139;48.114;11.442;2024-03-17T11:42:18;3.03;;;1.60;;
14121;SDS011;7139;48.114;11.442;2024-03-17T11:44:44;2.70;;;1.60;;
14121;SDS011;7139;48.114;11.442;2024-03-17T11:47:23;2.60;;;1.50;;
14121;SDS011;7139;48.114;11.442;2024-03-17T11:49:58;3.57;;;1.47;;
14121;SDS011;7139;48.114;11.442;2024-03-17T11:52:31;2.70;;;1.30;;
14121;SDS011;7139;48.114;11.442;2024-03-17T11:54:56;4.70;;;1.60;;
14121;SDS011;7139;48.114;11.442;2024-03-17T11:57:24;4.63;;;2.70;;
14121;SDS011;7139;48.114;11.442;2024-03-17T11:59:51;4.03;;;3.27;;
14121;SDS011;7139;48.114;11.442;2024-03-17T12:02:20;2.77;;;1.50;;
14121;SDS011;7139;48.114;11.442;2024-03-17T12:04:48;2.40;;;1.53;;
14121;SDS011;7139;48.114;11.442;2024-03-17T12:07:18;2.33;;;1.20;;
14121;SDS011;7139;48.114;11.442;2024-03-17T12:09:46;3.27;;;1.73;;
14121;SDS011;7139;48.114;11.442;2024-03-17T12:12:15;2.33;;;1.43;;
14121;SDS011;7139;48.114;11.442;2024-03-17T12:14:46;4.60;;;2.30;;
14121;SDS011;7139;48.114;11.442;2024-03-17T12:17:13;2.27;;;1.80;;
14121;SDS011;7139;48.114;11.442;2024-03-17T12:19:41;2.03;;;1.83;;
14121;SDS011;7139;48.114;11.442;2024-03-17T12:22:14;2.63;;;1.60;;
14121;SDS011;7139;48.114;11.442;2024-03-17T12:24:43;3.80;;;1.73;;
14121;SDS011;7139;48.114;11.442;2024-03-17T12:27:15;2.90;;;1.50;;
14121;SDS011;7139;48.114;11.442;2024-03-17T12:29:43;2.50;;;1.70;;
14121;SDS011;7139;48.114;11.442;2024-03-17T12:32:11;1.77;;;1.40;;
14121;SDS011;7139;48.114;11.442;2024-03-17T12:34:40;2.40;;;1.60;;
14121;SDS011;7139;48.114;11.442;2024-03-17T12:37:07;2.20;;;1.60;;
14121;SDS011;7139;48.114;11.442;2024-03-17T12:39:35;2.20;;;1.47;;
14121;SDS011;7139;48.114;11.442;2024-03-17T12:42:04;2.57;;;1.43;;
14121;SDS011;7139;48.114;11.442;2024-03-17T12:44:33;6.90;;;4.93;;
14121;SDS011;7139;48.114;11.442;2024-03-17T12:47:01;4.57;;;3.33;;
14121;SDS011;7139;48.114;11.442;2024-03-17T12:49:28;3.50;;;2.13;;
14121;SDS011;7139;48.114;11.442;2024-03-17T12:51:55;2.60;;;1.60;;
14121;SDS011;7139;48.114;11.442;2024-03-17T12:54:23;6.63;;;2.80;;
14121;SDS011;7139;48.114;11.442;2024-03-17T12:56:51;3.50;;;1.90;;
14121;SDS011;7139;48.114;11.442;2024-03-17T12:59:46;3.30;;;1.90;;
14121;SDS011;7139;48.114;11.442;2024-03-17T13:02:33;2.83;;;1.73;;
14121;SDS011;7139;48.114;11.442;2024-03-17T13:07:48;2.40;;;1.20;;
14121;SDS011;7139;48.114;11.442;2024-03-17T13:10:16;3.30;;;1.30;;
14121;SDS011;7139;48.114;11.442;2024-03-17T13:12:44;3.13;;;1.50;;
14121;SDS011;7139;48.114;11.442;2024-03-17T13:15:12;2.50;;;1.40;;
14121;SDS011;7139;48.114;11.442;2024-03-17T13:17:41;3.80;;;1.47;;
14121;SDS011;7139;48.114;11.442;2024-03-17T13:20:10;3.00;;;1.40;;
14121;SDS011;7139;48.114;11.442;2024-03-17T13:22:40;1.83;;;1.40;;
14121;SDS011;7139;48.114;11.442;2024-03-17T13:25:14;2.27;;;1.37;;
14121;SDS011;7139;48.114;11.442;2024-03-17T13:27:42;1.60;;;1.30;;
14121;SDS011;7139;48.114;11.442;2024-03-17T13:30:11;2.53;;;1.70;;
14121;SDS011;7139;48.114;11.442;2024-03-17T13:32:39;2.30;;;1.80;;
14121;SDS011;7139;48.114;11.442;2024-03-17T13:35:11;2.27;;;1.77;;
14121;SDS011;7139;48.114;11.442;2024-03-17T13:37:42;3.40;;;1.80;;
14121;SDS011;7139;48.114;11.442;2024-03-17T13:40:09;2.77;;;1.43;;
14121;SDS011;7139;48.114;11.442;2024-03-17T13:42:37;3.20;;;2.00;;
14121;SDS011;7139;48.114;11.442;2024-03-17T13:45:05;3.50;;;1.43;;
14121;SDS011;7139;48.114;11.442;2024-03-17T13:47:37;3.90;;;1.63;;
14121;SDS011;7139;48.114;11.442;2024-03-17T13:50:04;2.17;;;1.40;;
14121;SDS011;7139;48.114;11.442;2024-03-17T13:52:35;2.77;;;1.40;;
14121;SDS011;7139;48.114;11.442;2024-03-17T13:55:02;2.33;;;1.57;;
14121;SDS011;7139;48.114;11.442;2024-03-17T13:57:31;4.63;;;1.67;;
14121;SDS011;7139;48.114;11.442;2024-03-17T13:59:58;3.53;;;1.60;;
14121;SDS011;7139;48.114;11.442;2024-03-17T14:02:25;2.87;;;1.57;;
14121;SDS011;7139;48.114;11.442;2024-03-17T14:04:53;4.93;;;1.80;;
14121;SDS011;7139;48.114;11.442;2024-03-17T14:07:20;3.07;;;1.50;;
14121;SDS011;7139;48.114;11.442;2024-03-17T14:09:47;2.93;;;1.50;;
14121;SDS011;7139;48.114;11.442;2024-03-17T14:12:13;2.87;;;1.60;;
14121;SDS011;7139;48.114;11.442;2024-03-17T14:14:41;2.27;;;1.47;;
14121;SDS011;7139;48.114;11.442;2024-03-17T14:17:08;3.03;;;1.70;;
14121;SDS011;7139;48.114;11.442;2024-03-17T14:19:34;3.90;;;1.83;;
14121;SDS011;7139;48.114;11.442;2024-03-17T14:22:03;2.70;;;1.70;;
14121;SDS011;7139;48.114;11.442;2024-03-17T14:24:30;2.40;;;1.50;;
14121;SDS011;7139;48.114;11.442;2024-03-17T14:26:56;3.50;;;1.80;;
14121;SDS011;7139;48.114;11.442;2024-03-17T14:29:23;3.97;;;1.77;;
14121;SDS011;7139;48.114;11.442;2024-03-17T14:31:50;3.53;;;1.77;;
14121;SDS011;7139;48.114;11.442;2024-03-17T14:34:17;3.40;;;1.70;;
14121;SDS011;7139;48.114;11.442;2024-03-17T14:36:43;3.20;;;1.63;;
14121;SDS011;7139;48.114;11.442;2024-03-17T14:39:12;2.70;;;1.57;;
14121;SDS011;7139;48.114;11.442;2024-03-17T14:41:38;3.20;;;1.40;;
14121;SDS011;7139;48.114;11.442;2024-03-17T14:44:05;4.77;;;1.60;;
14121;SDS011;7139;48.114;11.442;2024-03-17T14:46:33;3.03;;;1.50;;
14121;SDS011;7139;48.114;11.442;2024-03-17T14:49:00;3.47;;;1.60;;
14121;SDS011;7139;48.114;11.442;2024-03-17T14:51:27;3.03;;;1.50;;
14121;SDS011;7139;48.114;11.442;2024-03-17T14:53:54;3.50;;;1.50;;
14121;SDS011;7139;48.114;11.442;2024-03-17T14:56:23;4.53;;;1.60;;
14121;SDS011;7139;48.114;11.442;2024-03-17T14:58:50;2.90;;;1.40;;
14121;SDS011;7139;48.114;11.442;2024-03-17T15:01:17;3.10;;;1.83;;
14121;SDS011;7139;48.114;11.442;2024-03-17T15:03:44;3.07;;;1.60;;
14121;SDS011;7139;48.114;11.442;2024-03-17T15:06:11;3.30;;;1.50;;
14121;SDS011;7139;48.114;11.442;2024-03-17T15:08:39;3.40;;;1.40;;
14121;SDS011;7139;48.114;11.442;2024-03-17T15:11:06;3.93;;;1.70;;